createdAt,value
2022-12-27T00:00:24.843Z,2.50
2022-12-27T00:01:29.624Z,1.92
2022-12-27T00:02:31.599Z,2.00
2022-12-27T00:03:36.150Z,1.80
2022-12-27T00:04:38.129Z,2.20
2022-12-27T00:05:45.523Z,1.95
2022-12-27T00:06:47.720Z,2.35
2022-12-27T00:07:52.515Z,2.53
2022-12-27T00:08:55.290Z,2.30
2022-12-27T00:09:59.913Z,2.08
2022-12-27T00:11:05.720Z,2.42
2022-12-27T00:12:10.992Z,2.40
2022-12-27T00:13:12.924Z,2.13
2022-12-27T00:14:17.843Z,2.40
2022-12-27T00:15:20.235Z,2.15
2022-12-27T00:16:27.432Z,2.38
2022-12-27T00:17:29.435Z,1.83
2022-12-27T00:18:33.945Z,2.03
2022-12-27T00:19:35.899Z,1.60
2022-12-27T00:20:40.367Z,2.05
2022-12-27T00:21:42.356Z,1.80
2022-12-27T00:22:47.165Z,1.83
2022-12-27T00:23:55.563Z,1.92
2022-12-27T00:25:00.120Z,2.33
2022-12-27T00:26:02.498Z,2.10
2022-12-27T00:27:07.138Z,2.60
2022-12-27T00:28:09.049Z,2.55
2022-12-27T00:29:13.778Z,1.90
2022-12-27T00:30:15.747Z,2.58
2022-12-27T00:31:21.670Z,2.47
2022-12-27T00:32:29.002Z,2.88
2022-12-27T00:33:33.081Z,1.80
2022-12-27T00:34:37.790Z,1.60
2022-12-27T00:35:39.934Z,2.30
2022-12-27T00:36:44.441Z,2.42
2022-12-27T00:37:46.342Z,2.97
2022-12-27T00:38:51.922Z,2.15
2022-12-27T00:39:53.896Z,2.03
2022-12-27T00:40:58.501Z,2.63
2022-12-27T00:42:00.477Z,2.38
2022-12-27T00:43:05.038Z,2.25
2022-12-27T00:44:07.070Z,2.38
2022-12-27T00:45:13.393Z,2.50
2022-12-27T00:46:16.166Z,2.60
2022-12-27T00:47:20.689Z,1.83
2022-12-27T00:48:25.655Z,1.60
2022-12-27T00:49:30.177Z,2.15
2022-12-27T00:50:32.143Z,1.85
2022-12-27T00:51:36.650Z,1.88
2022-12-27T00:52:38.595Z,1.83
2022-12-27T00:53:43.236Z,1.95
2022-12-27T00:54:45.293Z,1.65
2022-12-27T00:55:49.790Z,1.98
2022-12-27T00:56:51.760Z,1.70
2022-12-27T00:57:57.044Z,1.83
2022-12-27T00:59:00.681Z,1.90
2022-12-27T01:00:10.178Z,1.65
2022-12-27T01:01:15.464Z,1.80
2022-12-27T01:02:20.079Z,1.40
2022-12-27T01:03:24.646Z,1.33
2022-12-27T01:04:29.172Z,1.42
2022-12-27T01:05:31.092Z,1.60
2022-12-27T01:06:37.234Z,1.88
2022-12-27T01:07:39.148Z,1.63
2022-12-27T01:08:43.815Z,1.42
2022-12-27T01:09:45.858Z,1.10
2022-12-27T01:10:50.435Z,1.02
2022-12-27T01:11:52.365Z,0.90
2022-12-27T01:12:57.116Z,0.90
2022-12-27T01:14:02.691Z,1.05
2022-12-27T01:15:07.969Z,1.20
2022-12-27T01:16:12.024Z,1.33
2022-12-27T01:17:16.567Z,0.95
2022-12-27T01:18:18.517Z,1.45
2022-12-27T01:19:25.691Z,1.58
2022-12-27T01:20:27.625Z,0.93
2022-12-27T01:21:31.060Z,0.90
2022-12-27T01:22:35.648Z,0.90
2022-12-27T01:23:38.894Z,0.77
2022-12-27T01:24:43.393Z,0.70
2022-12-27T01:25:45.395Z,0.90
2022-12-27T01:26:49.941Z,1.27
2022-12-27T01:27:51.910Z,0.80
2022-12-27T01:28:57.201Z,0.95
2022-12-27T01:29:59.210Z,0.80
2022-12-27T01:31:08.535Z,0.85
2022-12-27T01:32:10.571Z,0.77
2022-12-27T01:33:15.118Z,1.02
2022-12-27T01:34:18.068Z,0.82
2022-12-27T01:35:25.291Z,1.15
2022-12-27T01:36:29.643Z,0.98
2022-12-27T01:37:34.152Z,0.90
2022-12-27T01:38:36.120Z,0.93
2022-12-27T01:39:40.704Z,1.52
2022-12-27T01:40:42.693Z,0.90
2022-12-27T01:42:00.775Z,1.40
2022-12-27T01:43:05.334Z,1.10
2022-12-27T01:44:37.344Z,1.20
2022-12-27T01:45:42.026Z,1.42
2022-12-27T01:46:44.124Z,1.58
2022-12-27T01:47:53.885Z,1.13
2022-12-27T01:48:56.247Z,1.00
2022-12-27T01:50:08.193Z,0.63
2022-12-27T01:51:12.933Z,1.27
2022-12-27T01:52:18.049Z,1.10
2022-12-27T01:53:25.598Z,1.02
2022-12-27T01:54:27.573Z,1.10
2022-12-27T01:55:38.124Z,1.20
2022-12-27T01:56:40.144Z,1.27
2022-12-27T01:57:45.057Z,0.80
2022-12-27T01:58:54.516Z,0.90
2022-12-27T01:59:56.472Z,1.20
2022-12-27T02:01:01.835Z,1.08
2022-12-27T02:02:05.469Z,0.90
2022-12-27T02:03:10.399Z,1.23
2022-12-27T02:04:15.860Z,1.10
2022-12-27T02:05:23.382Z,1.20
2022-12-27T02:06:29.889Z,1.05
2022-12-27T02:07:43.802Z,1.42
2022-12-27T02:08:56.957Z,0.77
2022-12-27T02:10:00.963Z,0.90
2022-12-27T02:11:06.434Z,0.70
2022-12-27T02:12:10.735Z,0.57
2022-12-27T02:13:16.892Z,0.70
2022-12-27T02:14:26.199Z,0.77
2022-12-27T02:15:32.289Z,1.58
2022-12-27T02:16:34.277Z,0.63
2022-12-27T02:17:38.872Z,0.82
2022-12-27T02:18:41.202Z,0.50
2022-12-27T02:19:53.681Z,0.93
2022-12-27T02:21:27.061Z,0.80
2022-12-27T02:23:17.335Z,0.90
2022-12-27T02:24:43.958Z,0.70
2022-12-27T02:26:13.335Z,0.95
2022-12-27T02:27:31.763Z,0.65
2022-12-27T02:29:03.965Z,0.90
2022-12-27T02:30:13.024Z,0.82
2022-12-27T02:31:22.025Z,0.65
2022-12-27T02:32:33.312Z,1.00
2022-12-27T02:33:39.073Z,0.88
2022-12-27T02:34:54.769Z,1.02
2022-12-27T02:36:02.244Z,1.05
2022-12-27T02:37:12.847Z,1.13
2022-12-27T02:38:20.673Z,1.17
2022-12-27T02:39:27.374Z,1.17
2022-12-27T02:40:46.522Z,1.73
2022-12-27T02:43:21.748Z,1.10
2022-12-27T02:44:41.776Z,1.17
2022-12-27T02:46:07.155Z,1.08
2022-12-27T02:47:34.108Z,1.10
2022-12-27T02:48:51.185Z,0.82
2022-12-27T02:50:13.877Z,1.05
2022-12-27T02:51:47.010Z,0.90
2022-12-27T02:53:09.737Z,0.90
2022-12-27T02:54:28.709Z,0.98
2022-12-27T02:56:06.264Z,0.90
2022-12-27T02:57:22.879Z,0.90
2022-12-27T02:58:32.084Z,0.85
2022-12-27T03:00:07.143Z,0.70
2022-12-27T03:01:33.550Z,0.90
2022-12-27T03:03:01.602Z,0.90
2022-12-27T03:04:26.527Z,0.90
2022-12-27T03:05:45.443Z,1.33
2022-12-27T03:07:11.082Z,1.00
2022-12-27T03:08:20.908Z,0.98
2022-12-27T03:10:10.394Z,1.30
2022-12-27T03:11:27.563Z,1.20
2022-12-27T03:12:58.638Z,0.90
2022-12-27T03:14:31.345Z,0.88
2022-12-27T03:16:00.527Z,1.13
2022-12-27T03:17:07.642Z,1.17
2022-12-27T03:18:15.363Z,1.30
2022-12-27T03:19:47.770Z,1.40
2022-12-27T03:21:05.290Z,1.20
2022-12-27T03:22:24.719Z,1.38
2022-12-27T03:23:43.569Z,1.38
2022-12-27T03:25:00.754Z,1.70
2022-12-27T03:26:08.365Z,1.35
2022-12-27T03:27:18.748Z,2.45
2022-12-27T03:28:44.422Z,1.42
2022-12-27T03:30:14.835Z,1.52
2022-12-27T03:31:39.268Z,1.40
2022-12-27T03:33:01.140Z,1.88
2022-12-27T03:34:29.888Z,2.00
2022-12-27T03:35:35.606Z,2.65
2022-12-27T03:36:52.703Z,1.48
2022-12-27T03:38:05.687Z,1.60
2022-12-27T03:39:22.209Z,1.52
2022-12-27T03:40:34.688Z,1.80
2022-12-27T03:41:55.592Z,2.03
2022-12-27T03:43:14.784Z,2.67
2022-12-27T03:44:26.499Z,2.05
2022-12-27T03:45:49.075Z,2.33
2022-12-27T03:46:59.470Z,2.17
2022-12-27T03:48:04.931Z,1.90
2022-12-27T03:49:20.313Z,2.15
2022-12-27T03:50:31.495Z,2.50
2022-12-27T03:51:38.313Z,2.10
2022-12-27T03:52:48.515Z,2.30
2022-12-27T03:53:53.891Z,2.20
2022-12-27T03:54:59.165Z,2.60
2022-12-27T03:56:01.192Z,3.22
2022-12-27T03:57:09.025Z,2.70
2022-12-27T03:58:11.186Z,2.88
2022-12-27T03:59:15.902Z,2.88
2022-12-27T04:00:18.414Z,3.03
2022-12-27T04:01:23.042Z,2.85
2022-12-27T04:02:27.851Z,2.90
2022-12-27T04:03:32.818Z,2.78
2022-12-27T04:04:35.159Z,2.45
2022-12-27T04:05:39.660Z,2.90
2022-12-27T04:06:41.590Z,2.53
2022-12-27T04:07:58.617Z,2.90
2022-12-27T04:09:15.670Z,2.50
2022-12-27T04:10:32.820Z,2.45
2022-12-27T04:11:49.864Z,2.53
2022-12-27T04:13:06.881Z,2.70
2022-12-27T04:14:23.892Z,2.40
2022-12-27T04:15:40.919Z,2.78
2022-12-27T04:16:58.041Z,2.75
2022-12-27T04:18:17.803Z,2.00
2022-12-27T04:19:34.844Z,2.90
2022-12-27T04:20:51.831Z,2.63
2022-12-27T04:22:08.884Z,2.20
2022-12-27T04:23:26.065Z,2.33
2022-12-27T04:24:43.106Z,2.42
2022-12-27T04:26:00.609Z,2.58
2022-12-27T04:27:17.604Z,2.88
2022-12-27T04:28:34.662Z,2.33
2022-12-27T04:29:51.677Z,2.80
2022-12-27T04:31:08.686Z,2.50
2022-12-27T04:32:25.673Z,2.50
2022-12-27T04:33:45.277Z,3.53
2022-12-27T04:34:49.798Z,2.90
2022-12-27T04:35:51.738Z,2.85
2022-12-27T04:36:56.289Z,3.33
2022-12-27T04:37:58.297Z,3.67
2022-12-27T04:39:02.846Z,3.25
2022-12-27T04:40:20.980Z,2.70
2022-12-27T04:41:38.009Z,3.10
2022-12-27T04:42:54.995Z,2.78
2022-12-27T04:44:12.022Z,2.88
2022-12-27T04:45:29.301Z,2.70
2022-12-27T04:46:46.443Z,2.90
2022-12-27T04:48:03.503Z,2.17
2022-12-27T04:49:26.746Z,3.00
2022-12-27T04:50:45.819Z,2.95
2022-12-27T04:52:11.279Z,2.65
2022-12-27T04:53:30.156Z,2.63
2022-12-27T04:54:59.029Z,3.10
2022-12-27T04:56:04.033Z,4.20
2022-12-27T04:57:06.035Z,3.33
2022-12-27T04:58:10.575Z,2.17
2022-12-27T04:59:27.558Z,2.42
2022-12-27T05:00:46.360Z,2.97
2022-12-27T05:02:03.631Z,2.22
2022-12-27T05:03:11.816Z,2.42
2022-12-27T05:04:17.004Z,1.90
2022-12-27T05:05:21.899Z,2.30
2022-12-27T05:06:23.839Z,2.33
2022-12-27T05:07:41.063Z,2.30
2022-12-27T05:08:58.856Z,2.22
2022-12-27T05:10:18.661Z,2.05
2022-12-27T05:11:35.724Z,1.92
2022-12-27T05:12:52.915Z,2.55
2022-12-27T05:14:03.599Z,2.88
2022-12-27T05:15:06.521Z,1.85
2022-12-27T05:16:11.132Z,3.25
2022-12-27T05:17:13.602Z,2.42
2022-12-27T05:18:18.119Z,2.00
2022-12-27T05:19:25.207Z,2.28
2022-12-27T05:20:27.139Z,2.15
2022-12-27T05:21:31.751Z,2.47
2022-12-27T05:22:48.761Z,2.30
2022-12-27T05:24:06.056Z,2.20
2022-12-27T05:25:26.293Z,1.55
2022-12-27T05:26:32.872Z,2.38
2022-12-27T05:27:34.822Z,2.45
2022-12-27T05:28:39.384Z,2.97
2022-12-27T05:29:41.331Z,1.95
2022-12-27T05:30:47.006Z,1.85
2022-12-27T05:31:51.594Z,2.17
2022-12-27T05:32:54.578Z,2.22
2022-12-27T05:33:59.640Z,1.67
2022-12-27T05:35:04.833Z,1.90
2022-12-27T05:36:11.075Z,4.25
2022-12-27T05:37:13.109Z,2.00
2022-12-27T05:38:17.746Z,2.22
2022-12-27T05:39:19.718Z,2.28
2022-12-27T05:40:24.390Z,1.92
2022-12-27T05:41:28.959Z,3.10
2022-12-27T05:42:31.877Z,3.17
2022-12-27T05:43:37.138Z,2.65
2022-12-27T05:44:39.128Z,2.03
2022-12-27T05:45:43.666Z,3.17
2022-12-27T05:46:45.682Z,2.08
2022-12-27T05:47:50.260Z,2.13
2022-12-27T05:48:52.203Z,2.08
2022-12-27T05:49:56.694Z,1.95
2022-12-27T05:51:05.055Z,1.80
2022-12-27T05:52:09.609Z,1.65
2022-12-27T05:53:12.029Z,3.13
2022-12-27T05:54:16.668Z,1.90
2022-12-27T05:55:18.612Z,1.77
2022-12-27T05:56:24.071Z,2.03
2022-12-27T05:57:26.178Z,2.25
2022-12-27T05:58:30.975Z,2.00
2022-12-27T05:59:32.955Z,2.10
2022-12-27T06:00:37.533Z,2.65
2022-12-27T06:01:39.541Z,2.08
2022-12-27T06:02:44.930Z,2.10
2022-12-27T06:03:47.245Z,2.20
2022-12-27T06:04:51.795Z,2.33
2022-12-27T06:06:05.125Z,1.92
2022-12-27T06:07:07.093Z,2.38
2022-12-27T06:08:12.405Z,2.15
2022-12-27T06:09:14.478Z,2.25
2022-12-27T06:10:19.043Z,2.00
2022-12-27T06:11:21.067Z,1.90
2022-12-27T06:12:25.585Z,2.22
2022-12-27T06:13:27.504Z,2.42
2022-12-27T06:14:32.033Z,2.97
2022-12-27T06:15:34.144Z,2.53
2022-12-27T06:16:38.982Z,2.65
2022-12-27T06:17:41.246Z,2.22
2022-12-27T06:18:46.250Z,2.85
2022-12-27T06:19:52.469Z,2.40
2022-12-27T06:21:07.254Z,3.42
2022-12-27T06:22:09.209Z,2.20
2022-12-27T06:23:13.725Z,2.33
2022-12-27T06:24:16.753Z,3.63
2022-12-27T06:25:21.567Z,1.92
2022-12-27T06:26:26.596Z,2.50
2022-12-27T06:27:31.656Z,3.15
2022-12-27T06:28:33.744Z,3.13
2022-12-27T06:29:38.399Z,2.95
2022-12-27T06:30:40.334Z,2.35
2022-12-27T06:31:44.965Z,2.38
2022-12-27T06:32:46.991Z,2.70
2022-12-27T06:33:53.313Z,2.10
2022-12-27T06:34:55.271Z,2.75
2022-12-27T06:36:00.412Z,2.50
2022-12-27T06:37:04.965Z,2.58
2022-12-27T06:38:09.500Z,3.17
2022-12-27T06:39:11.479Z,2.40
2022-12-27T06:40:16.012Z,2.70
2022-12-27T06:41:19.225Z,2.60
2022-12-27T06:42:23.741Z,2.38
2022-12-27T06:43:25.735Z,3.03
2022-12-27T06:44:30.355Z,2.67
2022-12-27T06:45:32.300Z,3.65
2022-12-27T06:46:36.886Z,2.90
2022-12-27T06:47:38.886Z,3.20
2022-12-27T06:48:43.491Z,3.22
2022-12-27T06:49:45.446Z,4.97
2022-12-27T06:50:49.947Z,2.72
2022-12-27T06:51:59.067Z,3.70
2022-12-27T06:53:06.721Z,3.60
2022-12-27T06:54:08.696Z,2.67
2022-12-27T06:55:13.181Z,2.50
2022-12-27T06:56:17.774Z,2.33
2022-12-27T06:57:22.250Z,2.67
2022-12-27T06:58:24.242Z,2.80
2022-12-27T06:59:28.743Z,2.83
2022-12-27T07:00:30.727Z,2.75
2022-12-27T07:01:35.371Z,2.58
2022-12-27T07:02:38.384Z,3.25
2022-12-27T07:03:43.686Z,3.08
2022-12-27T07:04:45.697Z,2.45
2022-12-27T07:05:50.197Z,3.83
2022-12-27T07:06:52.148Z,2.10
2022-12-27T07:07:56.627Z,2.63
2022-12-27T07:09:01.485Z,2.75
2022-12-27T07:10:06.296Z,3.10
2022-12-27T07:11:11.010Z,2.55
2022-12-27T07:12:15.501Z,2.83
2022-12-27T07:13:17.425Z,2.97
2022-12-27T07:14:21.975Z,2.60
2022-12-27T07:15:24.357Z,2.85
2022-12-27T07:16:31.406Z,2.63
2022-12-27T07:17:35.184Z,2.95
2022-12-27T07:18:40.213Z,3.25
2022-12-27T07:19:42.226Z,2.63
2022-12-27T07:20:46.724Z,5.25
2022-12-27T07:21:51.228Z,3.72
2022-12-27T07:22:53.141Z,2.17
2022-12-27T07:23:58.420Z,2.80
2022-12-27T07:25:02.935Z,2.55
2022-12-27T07:26:08.690Z,2.20
2022-12-27T07:27:10.615Z,2.90
2022-12-27T07:28:15.110Z,2.50
2022-12-27T07:29:17.253Z,2.53
2022-12-27T07:30:21.805Z,2.67
2022-12-27T07:31:26.716Z,8.23
2022-12-27T07:32:31.332Z,3.58
2022-12-27T07:33:33.383Z,4.28
2022-12-27T07:34:37.887Z,4.95
2022-12-27T07:35:44.966Z,4.20
2022-12-27T07:36:49.807Z,2.90
2022-12-27T07:37:52.077Z,4.28
2022-12-27T07:38:57.550Z,9.68
2022-12-27T07:39:59.448Z,4.85
2022-12-27T07:41:06.715Z,3.88
2022-12-27T07:42:08.895Z,4.10
2022-12-27T07:43:13.440Z,6.70
2022-12-27T07:44:15.585Z,7.47
2022-12-27T07:45:20.154Z,5.35
2022-12-27T07:46:23.993Z,7.35
2022-12-27T07:47:28.519Z,8.18
2022-12-27T07:48:30.398Z,9.98
2022-12-27T07:49:34.916Z,11.02
2022-12-27T07:50:36.865Z,10.20
2022-12-27T07:51:41.406Z,11.25
2022-12-27T07:52:43.316Z,9.00
2022-12-27T07:53:50.360Z,7.50
2022-12-27T07:54:52.280Z,8.80
2022-12-27T07:55:56.948Z,8.63
2022-12-27T07:57:05.039Z,8.25
2022-12-27T07:58:06.972Z,16.65
2022-12-27T07:59:14.650Z,9.88
2022-12-27T08:00:17.288Z,6.75
2022-12-27T08:01:24.109Z,6.22
2022-12-27T08:02:26.184Z,6.78
2022-12-27T08:03:30.816Z,9.63
2022-12-27T08:04:37.224Z,6.80
2022-12-27T08:05:47.319Z,6.25
2022-12-27T08:06:49.723Z,4.22
2022-12-27T08:07:54.293Z,3.50
2022-12-27T08:09:00.891Z,6.03
2022-12-27T08:10:02.814Z,4.72
2022-12-27T08:11:07.734Z,6.43
2022-12-27T08:12:13.597Z,6.60
2022-12-27T08:13:18.131Z,9.95
2022-12-27T08:14:20.269Z,5.95
2022-12-27T08:15:25.395Z,5.75
2022-12-27T08:16:30.995Z,6.40
2022-12-27T08:17:33.291Z,5.22
2022-12-27T08:18:38.087Z,2.58
2022-12-27T08:19:40.124Z,3.85
2022-12-27T08:20:45.080Z,2.70
2022-12-27T08:21:47.342Z,2.30
2022-12-27T08:22:52.320Z,3.53
2022-12-27T08:23:54.449Z,1.98
2022-12-27T08:24:59.410Z,1.83
2022-12-27T08:26:01.589Z,2.20
2022-12-27T08:27:06.759Z,1.90
2022-12-27T08:28:13.412Z,2.50
2022-12-27T08:29:18.253Z,2.33
2022-12-27T08:30:20.852Z,3.10
2022-12-27T08:31:25.922Z,3.30
2022-12-27T08:32:28.225Z,3.05
2022-12-27T08:33:33.370Z,3.05
2022-12-27T08:34:35.625Z,3.05
2022-12-27T08:35:52.599Z,2.15
2022-12-27T08:36:59.031Z,1.98
2022-12-27T08:38:01.665Z,3.17
2022-12-27T08:39:07.618Z,2.40
2022-12-27T08:40:10.830Z,2.22
2022-12-27T08:41:15.575Z,1.67
2022-12-27T08:42:17.768Z,1.60
2022-12-27T08:43:25.557Z,1.95
2022-12-27T08:44:30.232Z,5.75
2022-12-27T08:45:32.282Z,1.45
2022-12-27T08:46:37.207Z,8.27
2022-12-27T08:47:39.612Z,9.93
2022-12-27T08:48:44.515Z,1.23
2022-12-27T08:49:46.594Z,1.05
2022-12-27T08:50:51.440Z,3.95
2022-12-27T08:51:53.493Z,1.30
2022-12-27T08:53:00.443Z,1.60
2022-12-27T08:54:02.611Z,0.93
2022-12-27T08:55:08.410Z,0.90
2022-12-27T08:56:10.540Z,1.08
2022-12-27T08:57:15.324Z,1.63
2022-12-27T08:58:17.345Z,0.93
2022-12-27T08:59:24.733Z,1.00
2022-12-27T09:00:28.411Z,1.02
2022-12-27T09:01:33.405Z,3.65
2022-12-27T09:02:36.173Z,1.00
2022-12-27T09:03:41.402Z,0.82
2022-12-27T09:04:43.757Z,0.80
2022-12-27T09:05:50.034Z,0.98
2022-12-27T09:06:54.965Z,0.85
2022-12-27T09:07:58.642Z,0.98
2022-12-27T09:09:03.373Z,6.60
2022-12-27T09:10:06.970Z,1.20
2022-12-27T09:11:14.270Z,1.10
2022-12-27T09:12:16.335Z,1.20
2022-12-27T09:13:21.134Z,0.77
2022-12-27T09:14:29.238Z,0.80
2022-12-27T09:15:31.423Z,0.98
2022-12-27T09:16:37.049Z,1.00
2022-12-27T09:17:39.330Z,1.08
2022-12-27T09:18:45.525Z,0.70
2022-12-27T09:19:50.162Z,0.98
2022-12-27T09:20:52.589Z,0.80
2022-12-27T09:21:57.387Z,2.95
2022-12-27T09:24:42.784Z,1.38
2022-12-27T09:25:45.124Z,1.00
2022-12-27T09:26:49.864Z,2.47
2022-12-27T09:27:52.117Z,1.25
2022-12-27T09:28:57.767Z,2.97
2022-12-27T09:30:02.702Z,1.30
2022-12-27T09:31:08.109Z,1.02
2022-12-27T09:32:10.444Z,1.10
2022-12-27T09:33:15.460Z,1.45
2022-12-27T09:34:17.583Z,1.10
2022-12-27T09:35:22.475Z,1.20
2022-12-27T09:36:27.370Z,1.00
2022-12-27T09:37:32.230Z,1.02
2022-12-27T09:38:37.743Z,1.00
2022-12-27T09:39:39.861Z,1.42
2022-12-27T09:40:56.121Z,1.10
2022-12-27T09:43:44.457Z,0.90
2022-12-27T09:44:51.839Z,0.77
2022-12-27T09:46:00.610Z,1.10
2022-12-27T09:47:11.253Z,1.00
2022-12-27T09:48:20.559Z,0.85
2022-12-27T09:49:30.344Z,1.10
2022-12-27T09:50:38.584Z,1.20
2022-12-27T09:51:48.850Z,1.42
2022-12-27T09:53:01.427Z,0.90
2022-12-27T09:54:14.960Z,1.45
2022-12-27T09:55:21.111Z,1.33
2022-12-27T09:56:54.004Z,1.30
2022-12-27T09:58:06.252Z,0.85
2022-12-27T09:59:16.329Z,0.93
2022-12-27T10:00:34.820Z,0.95
2022-12-27T10:01:44.851Z,1.23
2022-12-27T10:02:48.061Z,1.05
2022-12-27T10:03:53.300Z,0.88
2022-12-27T10:05:19.815Z,1.00
2022-12-27T10:06:49.924Z,0.90
2022-12-27T10:08:13.085Z,1.10
2022-12-27T10:09:34.814Z,0.70
2022-12-27T10:10:50.310Z,1.00
2022-12-27T10:12:04.684Z,1.00
2022-12-27T10:13:16.831Z,1.00
2022-12-27T10:14:33.594Z,1.00
2022-12-27T10:15:43.999Z,1.13
2022-12-27T10:16:59.885Z,1.10
2022-12-27T10:18:17.161Z,1.05
2022-12-27T10:19:32.182Z,1.20
2022-12-27T10:20:54.906Z,1.40
2022-12-27T10:22:15.181Z,1.00
2022-12-27T10:23:21.104Z,1.33
2022-12-27T10:24:28.930Z,0.80
2022-12-27T10:25:31.635Z,1.05
2022-12-27T10:26:36.515Z,1.13
2022-12-27T10:27:41.011Z,1.25
2022-12-27T10:28:50.309Z,1.33
2022-12-27T10:29:55.746Z,1.00
2022-12-27T10:31:47.993Z,1.10
2022-12-27T10:32:55.438Z,1.00
2022-12-27T10:34:00.808Z,1.20
2022-12-27T10:35:04.455Z,1.08
2022-12-27T10:36:14.572Z,1.15
2022-12-27T10:37:16.652Z,1.17
2022-12-27T10:38:21.996Z,1.20
2022-12-27T10:39:32.325Z,1.58
2022-12-27T10:40:43.397Z,1.25
2022-12-27T10:42:00.439Z,1.05
2022-12-27T10:43:05.106Z,1.02
2022-12-27T10:44:13.475Z,1.00
2022-12-27T10:45:32.556Z,1.17
2022-12-27T10:46:37.410Z,1.20
2022-12-27T10:47:40.383Z,1.17
2022-12-27T10:49:22.654Z,1.10
2022-12-27T10:50:24.494Z,0.70
2022-12-27T10:51:31.633Z,2.45
2022-12-27T10:52:35.507Z,1.83
2022-12-27T10:53:42.721Z,2.00
2022-12-27T10:54:57.426Z,2.22
2022-12-27T10:56:10.935Z,1.60
2022-12-27T10:57:28.934Z,1.90
2022-12-27T10:58:38.813Z,1.80
2022-12-27T10:59:43.843Z,1.90
2022-12-27T11:00:53.672Z,1.40
2022-12-27T11:02:19.644Z,1.35
2022-12-27T11:03:21.884Z,0.95
2022-12-27T11:04:29.861Z,1.35
2022-12-27T11:05:34.023Z,1.40
2022-12-27T11:06:39.130Z,1.52
2022-12-27T11:07:44.210Z,1.10
2022-12-27T11:08:46.290Z,3.22
2022-12-27T11:09:51.493Z,2.92
2022-12-27T11:11:12.436Z,3.90
2022-12-27T11:12:24.021Z,4.00
2022-12-27T11:14:30.783Z,7.50
2022-12-27T11:15:38.633Z,4.30
2022-12-27T11:16:44.280Z,7.25
2022-12-27T11:17:48.387Z,8.95
2022-12-27T11:18:56.891Z,6.57
2022-12-27T11:20:09.173Z,6.50
2022-12-27T11:21:24.122Z,4.10
2022-12-27T11:22:32.373Z,4.05
2022-12-27T11:23:42.324Z,5.90
2022-12-27T11:24:49.825Z,5.10
2022-12-27T11:25:54.773Z,5.10
2022-12-27T11:27:01.924Z,2.20
2022-12-27T11:28:21.850Z,2.03
2022-12-27T11:29:30.959Z,2.95
2022-12-27T11:30:36.324Z,2.95
2022-12-27T11:31:46.727Z,4.45
2022-12-27T11:32:48.992Z,4.47
2022-12-27T11:33:55.931Z,4.95
2022-12-27T11:35:00.781Z,2.00
2022-12-27T11:36:07.511Z,1.83
2022-12-27T11:37:16.427Z,4.43
2022-12-27T11:38:24.670Z,3.55
2022-12-27T11:39:52.081Z,2.92
2022-12-27T11:41:04.737Z,3.72
2022-12-27T11:42:18.192Z,4.10
2022-12-27T11:43:25.565Z,3.03
2022-12-27T11:44:33.013Z,2.45
2022-12-27T11:45:40.805Z,5.53
2022-12-27T11:46:53.917Z,3.78
2022-12-27T11:48:06.104Z,2.45
2022-12-27T11:49:18.106Z,5.25
2022-12-27T11:50:42.731Z,4.60
2022-12-27T11:52:18.233Z,5.18
2022-12-27T11:53:47.748Z,5.93
2022-12-27T11:55:16.378Z,5.38
2022-12-27T11:56:26.501Z,2.30
2022-12-27T11:57:43.351Z,1.77
2022-12-27T11:59:10.542Z,0.80
2022-12-27T12:00:23.032Z,1.13
2022-12-27T12:01:44.492Z,0.95
2022-12-27T12:03:18.031Z,1.15
2022-12-27T12:05:04.875Z,1.45
2022-12-27T12:06:17.276Z,1.20
2022-12-27T12:07:43.061Z,2.13
2022-12-27T12:09:21.437Z,5.53
2022-12-27T12:10:36.188Z,3.50
2022-12-27T12:11:59.190Z,4.63
2022-12-27T12:13:24.110Z,3.72
2022-12-27T12:14:58.647Z,1.83
2022-12-27T12:16:23.871Z,1.70
2022-12-27T12:17:49.908Z,2.42
2022-12-27T12:19:16.004Z,1.67
2022-12-27T12:20:50.769Z,4.43
2022-12-27T12:22:13.156Z,1.17
2022-12-27T12:23:29.583Z,0.82
2022-12-27T12:25:06.948Z,1.35
2022-12-27T12:26:19.847Z,1.00
2022-12-27T12:27:42.523Z,1.30
2022-12-27T12:29:28.560Z,1.25
2022-12-27T12:30:48.340Z,8.20
2022-12-27T12:32:30.685Z,10.90
2022-12-27T12:33:51.265Z,16.25
2022-12-27T12:35:31.302Z,15.43
2022-12-27T12:36:52.961Z,12.27
2022-12-27T12:38:19.663Z,1.88
2022-12-27T12:39:37.187Z,0.85
2022-12-27T12:41:04.851Z,1.27
2022-12-27T12:42:23.421Z,5.57
2022-12-27T12:43:49.239Z,10.20
2022-12-27T12:45:22.676Z,6.30
2022-12-27T12:46:32.878Z,10.50
2022-12-27T12:47:58.211Z,6.20
2022-12-27T12:49:10.460Z,5.07
2022-12-27T12:50:31.885Z,5.25
2022-12-27T12:52:25.961Z,1.98
2022-12-27T12:53:47.733Z,0.70
2022-12-27T12:55:18.573Z,0.70
2022-12-27T12:56:43.494Z,0.93
2022-12-27T12:58:02.133Z,1.20
2022-12-27T12:59:36.887Z,2.55
2022-12-27T13:01:05.268Z,9.88
2022-12-27T13:02:40.007Z,5.93
2022-12-27T13:03:58.408Z,3.85
2022-12-27T13:05:14.019Z,3.53
2022-12-27T13:06:34.910Z,5.35
2022-12-27T13:07:53.628Z,6.07
2022-12-27T13:09:05.920Z,11.27
2022-12-27T13:10:34.379Z,10.75
2022-12-27T13:11:49.594Z,10.30
2022-12-27T13:12:58.617Z,11.82
2022-12-27T13:14:30.212Z,12.77
2022-12-27T13:15:48.303Z,16.95
2022-12-27T13:16:58.762Z,10.73
2022-12-27T13:18:14.891Z,10.65
2022-12-27T13:19:37.906Z,12.65
2022-12-27T13:21:06.453Z,12.48
2022-12-27T13:22:16.195Z,13.52
2022-12-27T13:23:33.585Z,10.52
2022-12-27T13:24:50.615Z,13.27
2022-12-27T13:26:09.530Z,15.48
2022-12-27T13:27:24.730Z,15.20
2022-12-27T13:28:36.968Z,12.75
2022-12-27T13:30:03.062Z,15.00
2022-12-27T13:31:25.718Z,7.53
2022-12-27T13:32:42.194Z,14.63
2022-12-27T13:33:54.292Z,6.25
2022-12-27T13:35:14.930Z,16.23
2022-12-27T13:36:29.711Z,13.38
2022-12-27T13:37:49.605Z,13.75
2022-12-27T13:39:08.115Z,15.68
2022-12-27T13:40:39.113Z,11.73
2022-12-27T13:41:59.291Z,12.65
2022-12-27T13:43:35.044Z,13.18
2022-12-27T13:44:50.156Z,12.85
2022-12-27T13:46:15.036Z,12.00
2022-12-27T13:47:34.262Z,12.32
2022-12-27T13:48:58.235Z,6.35
2022-12-27T13:50:28.142Z,13.13
2022-12-27T13:51:47.637Z,12.15
2022-12-27T13:53:07.411Z,15.07
2022-12-27T13:54:43.037Z,11.98
2022-12-27T13:55:58.279Z,10.60
2022-12-27T13:57:15.373Z,7.00
2022-12-27T13:58:57.729Z,5.97
2022-12-27T14:00:17.313Z,6.57
2022-12-27T14:01:48.768Z,10.80
2022-12-27T14:03:24.665Z,14.85
2022-12-27T14:04:59.742Z,12.82
2022-12-27T14:06:34.125Z,13.77
2022-12-27T14:08:01.453Z,10.70
2022-12-27T14:09:37.845Z,7.05
2022-12-27T14:10:48.886Z,3.85
2022-12-27T14:12:04.948Z,11.38
2022-12-27T14:13:13.579Z,8.73
2022-12-27T14:14:18.761Z,12.70
2022-12-27T14:15:26.742Z,10.30
2022-12-27T14:16:42.381Z,6.82
2022-12-27T14:17:53.110Z,2.58
2022-12-27T14:19:22.568Z,3.97
2022-12-27T14:20:50.926Z,3.30
2022-12-27T14:22:17.635Z,3.30
2022-12-27T14:23:48.340Z,2.53
2022-12-27T14:25:25.207Z,2.47
2022-12-27T14:27:06.557Z,1.80
2022-12-27T14:28:47.788Z,3.10
2022-12-27T14:30:17.735Z,2.78
2022-12-27T14:31:45.305Z,3.10
2022-12-27T14:33:13.911Z,3.60
2022-12-27T14:34:42.520Z,5.43
2022-12-27T14:36:22.516Z,7.72
2022-12-27T14:38:00.895Z,11.43
2022-12-27T14:39:35.394Z,16.95
2022-12-27T14:41:02.785Z,9.52
2022-12-27T14:43:04.575Z,13.93
2022-12-27T14:44:44.759Z,12.32
2022-12-27T14:46:19.181Z,12.27
2022-12-27T14:47:53.818Z,9.27
2022-12-27T14:49:37.167Z,14.13
2022-12-27T14:51:50.479Z,10.00
2022-12-27T14:53:13.713Z,4.10
2022-12-27T14:54:49.159Z,6.40
2022-12-27T14:56:03.900Z,8.40
2022-12-27T14:57:20.536Z,10.65
2022-12-27T14:58:48.864Z,5.28
2022-12-27T15:00:00.409Z,3.75
2022-12-27T15:02:38.770Z,7.40
2022-12-27T15:04:12.484Z,5.88
2022-12-27T15:05:31.868Z,46.72
2022-12-27T15:07:01.813Z,22.10
2022-12-27T15:08:30.174Z,41.97
2022-12-27T15:09:42.927Z,41.90
2022-12-27T15:10:59.946Z,7.63
2022-12-27T15:12:15.855Z,14.10
2022-12-27T15:13:28.465Z,12.00
2022-12-27T15:14:45.363Z,21.33
2022-12-27T15:15:59.909Z,17.92
2022-12-27T15:17:14.557Z,17.60
2022-12-27T15:18:37.633Z,19.75
2022-12-27T15:20:09.177Z,7.13
2022-12-27T15:21:26.731Z,4.75
2022-12-27T15:22:41.475Z,8.93
2022-12-27T15:23:54.754Z,5.97
2022-12-27T15:25:08.471Z,4.28
2022-12-27T15:26:21.812Z,4.00
2022-12-27T15:27:33.682Z,5.00
2022-12-27T15:28:51.396Z,5.43
2022-12-27T15:30:11.153Z,5.35
2022-12-27T15:31:24.738Z,7.93
2022-12-27T15:32:40.047Z,8.50
2022-12-27T15:33:53.304Z,11.63
2022-12-27T15:35:20.597Z,14.45
2022-12-27T15:36:37.499Z,13.30
2022-12-27T15:38:01.310Z,12.57
2022-12-27T15:39:31.324Z,13.40
2022-12-27T15:40:58.153Z,15.27
2022-12-27T15:42:08.922Z,10.45
2022-12-27T15:43:33.020Z,14.55
2022-12-27T15:44:51.033Z,13.43
2022-12-27T15:46:08.434Z,14.48
2022-12-27T15:47:40.114Z,13.85
2022-12-27T15:49:08.633Z,13.13
2022-12-27T15:50:29.569Z,15.30
2022-12-27T15:51:36.975Z,15.15
2022-12-27T15:53:00.914Z,15.63
2022-12-27T15:54:34.237Z,19.25
2022-12-27T15:56:03.024Z,12.68
2022-12-27T15:57:26.412Z,20.27
2022-12-27T15:58:31.533Z,14.05